Latest Weather Observations for Cape Byron

IDN60801

Issued at 5:02 am EST Friday 4 September 2015 (issued every 30 minutes, with the page automatically refreshed every 10 minutes)

About weather observations | Map of weather stations | Latest weather observations for NSW | Other Formats
Station Details ID: 058216 Name: CAPE BYRON AWS Lat: -28.64 Lon: 153.64 Height: 95.0 m
Data from the previous 72 hours. | See also: Recent months at Cape Byron
Date/Time
EST
Temp
°C
App
Temp
°C
Dew
Point
Rel
Hum
%
Delta-T
°C
Wind Press
QNH
hPa
Press
MSL
hPa
Rain
since 9 am
mm
Dir
 
Spd
km/h
Gust
km/h
Spd
kts
Gust
kts
04/05:00am 13.3 6.1 5.9 61 3.5 WSW 33 37 18 20 1014.4 1014.2 -
04/04:30am 13.5 6.5 6.1 61 3.5 WSW 32 43 17 23 1014.3 1014.1 0.0
04/04:00am 13.8 5.5 5.9 59 3.8 WSW 39 52 21 28 1013.8 1013.6 0.0
04/03:30am 13.5 6.9 6.1 61 3.5 WSW 30 43 16 23 1013.7 1013.5 0.0
04/03:00am 13.6 8.1 6.0 60 3.6 WSW 24 30 13 16 1014.1 1013.9 0.0
04/02:30am 13.9 9.4 6.0 59 3.8 W 19 33 10 18 1014.0 1013.8 0.0
04/02:00am 14.2 9.5 6.1 58 3.9 WSW 20 30 11 16 1014.0 1013.8 0.0
04/01:30am 14.2 9.1 6.1 58 3.9 W 22 32 12 17 1014.1 1013.9 0.0
04/01:00am 14.2 8.7 6.1 58 3.9 W 24 39 13 21 1014.2 1014.0 0.0
04/12:30am 14.5 7.5 5.8 56 4.2 WSW 32 46 17 25 1014.1 1013.9 0.0
04/12:00am 14.5 9.0 6.1 57 4.0 WSW 24 35 13 19 1014.4 1014.2 0.0
 
Date/Time
EST
Temp
°C
App
Temp
°C
Dew
Point
Rel
Hum
%
Delta-T
°C
Wind Press
QNH
hPa
Press
MSL
hPa
Rain
since 9 am
mm
Dir
 
Spd
km/h
Gust
km/h
Spd
kts
Gust
kts
03/11:30pm 14.3 10.2 6.2 58 3.9 SW 17 26 9 14 1014.4 1014.2 0.0
03/11:00pm 14.6 9.8 5.7 55 4.3 WSW 20 30 11 16 1014.0 1013.8 0.0
03/10:30pm 14.7 10.1 5.8 55 4.3 WSW 19 24 10 13 1014.1 1013.9 0.0
03/10:00pm 14.8 10.3 6.1 56 4.2 WNW 19 32 10 17 1013.9 1013.7 0.0
03/09:30pm 15.3 10.5 5.8 53 4.6 W 20 33 11 18 1013.9 1013.7 0.0
03/09:00pm 15.4 9.9 5.9 53 4.6 W 24 41 13 22 1013.7 1013.5 0.0
03/08:30pm 15.6 9.4 6.1 53 4.6 W 28 43 15 23 1013.3 1013.1 0.0
03/08:00pm 15.7 9.9 6.4 54 4.5 W 26 41 14 22 1012.7 1012.5 0.0
03/07:30pm 15.7 11.2 7.0 56 4.3 W 20 33 11 18 1012.2 1012.0 0.0
03/07:00pm 16.0 10.3 6.7 54 4.6 W 26 37 14 20 1012.0 1011.8 0.0
03/06:30pm 16.5 10.0 6.3 51 5.0 W 30 43 16 23 1011.7 1011.5 0.0
03/06:00pm 17.4 10.2 5.7 46 5.7 W 33 52 18 28 1011.1 1010.8 0.0
03/05:30pm 18.0 10.4 5.6 44 6.1 WSW 35 56 19 30 1010.8 1010.5 0.0
03/05:17pm 18.3 9.2 5.8 44 6.1 W 43 70 23 38 1010.3 1010.0 0.0
03/05:00pm 20.9 12.6 2.2 29 8.7 W 35 56 19 30 1009.1 1008.8 0.0
03/04:30pm 21.3 13.0 2.1 28 9.0 WNW 35 57 19 31 1008.3 1008.0 0.0
03/04:03pm 22.3 14.4 2.4 27 9.4 WNW 33 56 18 30 1007.7 1007.4 0.0
03/04:00pm 22.3 14.6 2.4 27 9.5 WNW 32 48 17 26 1007.7 1007.4 0.0
03/03:30pm 22.8 13.2 1.2 24 10.0 W 41 67 22 36 1007.3 1007.0 0.0
03/03:00pm 23.4 14.6 1.1 23 10.4 WNW 37 59 20 32 1006.8 1006.5 0.0
03/02:33pm 23.7 17.0 3.6 27 9.8 W 28 48 15 26 1006.5 1006.2 0.0
03/02:30pm 23.9 18.4 5.8 31 9.2 W 24 41 13 22 1006.5 1006.2 0.0
03/02:00pm 24.0 18.4 5.4 30 9.5 NW 24 41 13 22 1006.2 1005.9 0.0
03/01:30pm 24.4 20.5 8.8 37 8.4 NW 19 33 10 18 1006.8 1006.5 0.0
03/01:00pm 23.8 20.2 10.5 43 7.4 WNW 20 37 11 20 1007.6 1007.3 0.0
03/12:30pm 22.8 17.6 10.3 45 6.9 W 28 44 15 24 1008.3 1008.0 0.0
03/12:10pm 22.4 17.0 10.9 48 6.4 W 30 52 16 28 1008.5 1008.2 0.0
03/12:00pm 21.9 17.6 12.2 54 5.5 W 26 39 14 21 1008.7 1008.4 0.0
03/11:30am 22.5 22.8 17.8 75 2.9 NNW 13 20 7 11 1009.0 1008.7 0.0
03/11:00am 21.1 19.4 17.1 78 2.5 N 22 32 12 17 1009.3 1009.0 0.0
03/10:30am 20.3 16.3 16.7 80 2.2 N 33 44 18 24 1009.5 1009.2 0.0
03/10:19am 20.0 16.9 16.6 81 2.1 N 28 46 15 25 1009.7 1009.4 0.0
03/10:00am 19.5 15.5 16.2 81 2.0 N 32 44 17 24 1009.7 1009.4 0.0
03/09:36am 19.8 16.6 16.4 81 2.1 N 28 46 15 25 1009.9 1009.6 0.0
03/09:30am 19.8 17.1 16.6 82 1.9 NNW 26 41 14 22 1010.0 1009.7 0.0
03/09:00am 19.1 14.6 16.3 84 1.7 N 35 46 19 25 1009.5 1009.2 0.8
03/08:30am 18.7 14.5 16.1 85 1.6 N 33 48 18 26 1009.5 1009.2 0.8
03/08:00am 18.2 13.2 16.0 87 1.3 N 37 48 20 26 1009.8 1009.5 0.8
03/07:30am 17.6 15.0 15.9 90 1.0 N 24 41 13 22 1009.9 1009.6 0.8
03/07:22am 17.5 13.7 15.8 90 1.0 N 30 48 16 26 1010.3 1010.0 0.8
03/07:00am 17.3 13.1 15.8 91 0.9 N 32 44 17 24 1010.1 1009.8 0.8
03/06:30am 17.3 13.8 15.5 89 1.1 NNW 28 43 15 23 1010.5 1010.2 0.6
03/06:00am 17.5 16.0 15.3 87 1.3 N 17 30 9 16 1011.0 1010.7 0.2
03/05:31am 17.4 12.3 14.9 85 1.5 N 35 56 19 30 1009.5 1009.2 0.2
03/05:30am 17.5 12.5 15.1 86 1.4 N 35 50 19 27 1009.5 1009.2 0.2
03/05:07am 17.5 13.0 14.8 84 1.6 N 32 52 17 28 1009.3 1009.0 0.2
03/05:00am 17.5 13.0 14.8 84 1.6 NNW 32 48 17 26 1009.4 1009.1 0.2
03/04:48am 17.5 12.7 14.6 83 1.7 N 33 52 18 28 1009.3 1009.0 0.2
03/04:30am 17.5 12.5 14.0 80 2.0 N 33 50 18 27 1009.3 1009.0 0.2
03/04:18am 17.6 12.3 14.1 80 2.0 N 35 54 19 29 1009.4 1009.1 0.2
03/04:00am 17.6 12.3 14.3 81 1.9 N 35 46 19 25 1009.6 1009.3 0.2
03/03:30am 17.8 12.0 13.9 78 2.2 N 37 59 20 32 1009.4 1009.1 0.2
03/03:22am 17.8 11.6 13.7 77 2.3 N 39 59 21 32 1009.6 1009.3 0.2
03/03:00am 18.1 12.8 14.2 78 2.3 N 35 48 19 26 1010.4 1010.1 0.2
03/02:30am 18.0 12.3 14.3 79 2.1 N 37 52 20 28 1011.3 1011.0 0.2
03/02:00am 18.3 13.7 14.6 79 2.2 N 32 52 17 28 1012.4 1012.2 0.0
03/01:44am 18.3 13.3 14.0 76 2.5 N 33 54 18 29 1012.2 1012.0 0.0
03/01:30am 18.3 13.2 13.8 75 2.6 N 33 46 18 25 1012.0 1011.8 0.0
03/01:00am 18.4 13.4 13.5 73 2.8 N 32 48 17 26 1012.9 1012.7 0.0
03/12:30am 18.6 14.9 13.9 74 2.7 N 26 35 14 19 1014.2 1014.0 0.0
03/12:00am 18.7 15.9 14.2 75 2.6 NNW 22 32 12 17 1014.5 1014.3 0.0
 
Date/Time
EST
Temp
°C
App
Temp
°C
Dew
Point
Rel
Hum
%
Delta-T
°C
Wind Press
QNH
hPa
Press
MSL
hPa
Rain
since 9 am
mm
Dir
 
Spd
km/h
Gust
km/h
Spd
kts
Gust
kts
02/11:30pm 18.3 17.0 13.6 74 2.7 NNW 13 20 7 11 1014.7 1014.5 0.0
02/11:00pm 17.5 16.0 12.0 70 3.0 NW 11 15 6 8 1014.6 1014.4 0.0
02/10:30pm 17.4 16.2 11.7 69 3.1 N 9 17 5 9 1014.8 1014.6 0.0
02/10:00pm 17.2 15.8 10.8 66 3.4 NW 9 15 5 8 1015.0 1014.8 0.0
02/09:30pm 17.4 15.2 10.8 65 3.6 NNW 13 19 7 10 1015.0 1014.8 0.0
02/09:00pm 17.5 15.4 11.3 67 3.4 NNW 13 19 7 10 1015.1 1014.9 0.0
02/08:30pm 17.2 15.2 11.5 69 3.1 NNW 13 19 7 10 1015.2 1015.0 0.0
02/08:00pm 17.6 15.2 11.4 67 3.4 NNW 15 22 8 12 1015.4 1015.2 0.0
02/07:30pm 18.0 15.8 12.0 68 3.3 NNW 15 22 8 12 1015.4 1015.2 0.0
02/07:00pm 18.2 14.9 11.5 65 3.7 N 20 26 11 14 1015.5 1015.3 0.0
02/06:30pm 18.6 15.7 12.4 67 3.5 N 19 26 10 14 1015.4 1015.2 0.0
02/06:00pm 18.7 15.3 11.3 62 4.1 NNE 20 30 11 16 1015.5 1015.3 0.0
02/05:30pm 18.6 15.2 10.7 60 4.3 NNE 19 28 10 15 1015.5 1015.3 0.0
02/05:00pm 18.8 15.3 10.1 57 4.7 NNE 19 26 10 14 1015.1 1014.9 0.0
02/04:30pm 19.0 15.4 9.8 55 4.9 NNE 19 26 10 14 1015.3 1015.1 0.0
02/04:00pm 19.1 15.4 9.6 54 5.1 NNE 19 26 10 14 1015.6 1015.4 0.0
02/03:30pm 19.5 16.4 8.8 50 5.6 NNE 15 20 8 11 1015.7 1015.5 0.0
02/03:00pm 19.5 15.5 9.1 51 5.5 NE 20 26 11 14 1015.9 1015.7 0.0
02/02:30pm 20.2 16.5 10.3 53 5.4 NE 20 26 11 14 1016.1 1015.9 0.0
02/02:00pm 21.2 18.4 10.1 49 6.0 ENE 15 20 8 11 1016.6 1016.3 0.0
02/01:30pm 21.0 18.5 11.1 53 5.5 E 15 19 8 10 1016.8 1016.5 0.0
02/01:00pm 20.9 18.5 10.1 50 5.9 E 13 17 7 9 1017.5 1017.2 0.0
02/12:30pm 21.1 18.7 10.0 49 6.0 ENE 13 17 7 9 1018.1 1017.8 0.0
02/12:00pm 20.9 18.3 10.7 52 5.6 E 15 17 8 9 1018.3 1018.0 0.0
02/11:30am 20.3 18.3 10.1 52 5.5 ESE 11 15 6 8 1018.7 1018.4 0.0
02/11:00am 18.7 16.8 9.2 54 5.0 S 9 11 5 6 1019.4 1019.1 0.0
02/10:30am 18.3 16.1 7.7 50 5.4 S 9 13 5 7 1019.5 1019.2 0.0
02/10:00am 17.9 15.3 6.1 46 5.8 SW 9 15 5 8 1019.9 1019.6 0.0
02/09:30am 17.2 13.8 5.8 47 5.6 WSW 13 19 7 10 1019.8 1019.5 0.0
02/09:00am 17.2 13.5 4.5 43 6.0 WSW 13 17 7 9 1019.8 1019.5 0.0
02/08:30am 15.6 10.2 2.4 41 5.9 WSW 20 28 11 15 1019.6 1019.3 0.0
02/08:00am 14.9 8.5 0.7 38 6.1 WSW 24 32 13 17 1019.4 1019.1 0.0
02/07:30am 15.0 8.1 0.4 37 6.2 WSW 26 33 14 18 1018.8 1018.5 0.0
02/07:00am 15.1 8.1 -0.6 34 6.6 WSW 26 32 14 17 1018.6 1018.3 0.0
02/06:30am 14.6 7.5 -1.1 34 6.5 WSW 26 32 14 17 1018.3 1018.0 0.0
02/06:00am 13.8 6.4 -0.6 37 5.9 WSW 28 33 15 18 1018.0 1017.7 0.0
02/05:30am 13.3 5.2 -0.3 39 5.6 W 32 41 17 22 1017.8 1017.5 0.0
02/05:00am 14.7 6.5 -1.0 34 6.5 WSW 32 39 17 21 1017.2 1016.9 0.0
02/04:30am 14.4 6.5 -1.2 34 6.4 WSW 30 37 16 20 1016.9 1016.6 0.0
02/04:00am 14.3 6.1 -0.9 35 6.3 WSW 32 39 17 21 1016.8 1016.5 0.0
02/03:30am 14.6 5.9 -0.7 35 6.4 WSW 35 44 19 24 1016.5 1016.2 0.0
02/03:00am 14.6 6.5 -0.3 36 6.2 WSW 32 44 17 24 1016.6 1016.3 0.0
02/02:30am 14.5 6.4 -0.4 36 6.2 W 32 41 17 22 1016.8 1016.5 0.0
02/02:00am 14.7 7.8 0.2 37 6.2 W 26 33 14 18 1017.0 1016.7 0.0
02/01:30am 14.6 8.5 0.1 37 6.1 WNW 22 28 12 15 1017.0 1016.7 0.0
02/01:00am 13.9 9.3 3.7 50 4.6 NW 17 20 9 11 1016.6 1016.3 0.0
02/12:30am 14.9 10.6 1.1 39 6.0 NW 13 17 7 9 1016.7 1016.4 0.0
02/12:00am 16.8 11.8 -1.3 29 7.6 W 15 20 8 11 1016.5 1016.2 0.0
 
Date/Time
EST
Temp
°C
App
Temp
°C
Dew
Point
Rel
Hum
%
Delta-T
°C
Wind Press
QNH
hPa
Press
MSL
hPa
Rain
since 9 am
mm
Dir
 
Spd
km/h
Gust
km/h
Spd
kts
Gust
kts
01/11:30pm 17.3 11.6 -0.9 29 7.7 W 19 22 10 12 1016.4 1016.1 0.0
01/11:00pm 15.5 12.3 8.5 63 3.6 WNW 15 19 8 10 1016.5 1016.2 0.0
01/10:30pm 15.7 12.4 8.0 60 3.9 WNW 15 17 8 9 1016.5 1016.2 0.0
01/10:00pm 16.4 13.9 8.1 58 4.2 WNW 11 13 6 7 1016.5 1016.2 0.0
01/09:30pm 16.4 14.3 8.4 59 4.1 WNW 9 11 5 6 1016.1 1015.9 0.0
01/09:00pm 16.2 13.9 8.9 62 3.8 NW 11 13 6 7 1016.1 1015.9 0.0
01/08:30pm 16.1 14.3 9.3 64 3.5 WNW 9 13 5 7 1016.1 1015.9 0.0
01/08:00pm 16.3 13.8 9.7 65 3.5 WNW 13 20 7 11 1016.0 1015.8 0.0
01/07:30pm 17.9 15.2 9.0 56 4.6 NE 13 20 7 11 1015.4 1015.2 0.0
01/07:00pm 17.6 14.9 10.5 63 3.8 ENE 15 17 8 9 1015.2 1015.0 0.0
01/06:30pm 17.6 14.6 9.2 58 4.4 NE 15 19 8 10 1014.8 1014.6 0.0
01/06:00pm 17.7 14.3 9.3 58 4.4 ENE 17 20 9 11 1014.3 1014.1 0.0
01/05:30pm 17.7 14.2 8.8 56 4.6 ENE 17 20 9 11 1014.0 1013.8 0.0
01/05:00pm 18.6 16.0 9.4 55 4.9 ENE 13 17 7 9 1013.9 1013.7 0.0
01/04:30pm 19.3 15.6 8.0 48 5.8 ENE 17 20 9 11 1013.9 1013.7 0.0
01/04:00pm 20.1 16.9 9.9 52 5.5 ENE 17 20 9 11 1013.7 1013.5 0.0
01/03:30pm 19.6 15.8 9.2 51 5.5 NE 19 20 10 11 1013.6 1013.4 0.0
01/03:00pm 19.8 15.5 7.2 44 6.4 NE 19 22 10 12 1013.6 1013.4 0.0
01/02:30pm 20.7 17.6 9.0 47 6.2 NE 15 17 8 9 1014.1 1013.9 0.0
01/02:00pm 21.6 19.1 9.8 47 6.4 ENE 13 15 7 8 1014.3 1014.1 0.0
01/01:30pm 21.0 18.3 8.9 46 6.4 ENE 13 15 7 8 1014.4 1014.2 0.0
01/01:00pm 21.0 18.8 10.8 52 5.6 E 13 19 7 10 1014.4 1014.2 0.0
01/12:30pm 20.4 17.7 9.0 48 6.0 E 13 17 7 9 1014.7 1014.5 0.0
01/12:00pm 19.9 16.8 8.9 49 5.8 E 15 19 8 10 1015.2 1015.0 0.0
01/11:30am 21.3 18.0 9.5 47 6.3 E 17 20 9 11 1015.6 1015.4 0.0
01/11:00am 20.4 18.3 9.6 50 5.8 ENE 11 15 6 8 1016.1 1015.9 0.0
01/10:30am 18.9 15.8 5.4 41 6.6 SW 11 17 6 9 1016.5 1016.2 0.0
01/10:00am 18.4 15.7 7.5 49 5.5 W 11 19 6 10 1016.8 1016.5 0.0
01/09:30am 18.0 15.0 7.7 51 5.2 WSW 13 17 7 9 1016.7 1016.5 0.0
01/09:00am 17.0 14.1 8.2 56 4.5 W 13 24 7 13 1016.8 1016.6 0.0
01/08:30am 15.6 13.1 8.4 62 3.7 WNW 11 19 6 10 1016.6 1016.4 0.0
01/08:00am 13.8 10.3 7.1 64 3.3 WNW 15 20 8 11 1016.5 1016.3 0.0
01/07:30am 12.8 8.1 5.9 63 3.3 WNW 20 22 11 12 1016.1 1016.0 0.0
01/07:00am 12.7 7.8 5.1 60 3.5 WNW 20 24 11 13 1015.9 1015.8 0.0
01/06:30am 13.8 8.8 4.4 53 4.3 W 20 24 11 13 1015.7 1015.6 0.0
01/06:00am 14.3 8.1 4.3 51 4.6 W 26 32 14 17 1015.3 1015.2 0.0
01/05:30am 14.2 7.3 4.5 52 4.5 W 30 35 16 19 1015.0 1014.9 0.0

Other Formats:

Comma delimited format used in spreadsheet applications
http://www.bom.gov.au/fwo/IDN60801/IDN60801.94599.axf

JavaScript Object Notation format (JSON) in row-major order
http://www.bom.gov.au/fwo/IDN60801/IDN60801.94599.json